createdAt,value
2022-08-17T00:01:51.896Z,5.10
2022-08-17T00:04:20.378Z,5.30
2022-08-17T00:06:49.353Z,4.40
2022-08-17T00:09:18.766Z,4.10
2022-08-17T00:12:03.981Z,3.88
2022-08-17T00:14:36.144Z,4.07
2022-08-17T00:17:04.815Z,3.80
2022-08-17T00:19:32.932Z,3.58
2022-08-17T00:22:31.047Z,3.22
2022-08-17T00:24:49.732Z,3.50
2022-08-17T00:27:16.447Z,3.55
2022-08-17T00:29:45.519Z,3.30
2022-08-17T00:33:12.019Z,2.50
2022-08-17T00:35:05.570Z,2.00
2022-08-17T00:37:32.194Z,1.83
2022-08-17T00:39:58.926Z,2.17
2022-08-17T00:42:30.787Z,1.85
2022-08-17T00:44:58.222Z,2.03
2022-08-17T00:47:24.850Z,2.10
2022-08-17T00:49:51.875Z,1.83
2022-08-17T00:52:23.080Z,1.40
2022-08-17T00:54:54.009Z,2.05
2022-08-17T00:57:26.273Z,2.30
2022-08-17T01:00:02.283Z,1.98
2022-08-17T01:02:41.201Z,1.90
2022-08-17T01:05:15.201Z,2.33
2022-08-17T01:07:42.891Z,1.75
2022-08-17T01:10:58.125Z,2.30
2022-08-17T01:13:02.601Z,2.13
2022-08-17T01:15:31.323Z,2.80
2022-08-17T01:17:58.042Z,2.28
2022-08-17T01:20:25.122Z,1.92
2022-08-17T01:22:52.204Z,1.58
2022-08-17T01:25:20.376Z,1.48
2022-08-17T01:27:47.565Z,1.20
2022-08-17T01:30:56.861Z,1.48
2022-08-17T01:33:01.333Z,1.30
2022-08-17T01:35:27.919Z,1.08
2022-08-17T01:37:54.604Z,1.65
2022-08-17T01:40:40.948Z,1.30
2022-08-17T01:43:15.013Z,1.23
2022-08-17T01:45:45.944Z,2.20
2022-08-17T01:48:13.201Z,1.52
2022-08-17T01:50:43.604Z,1.63
2022-08-17T01:53:15.541Z,1.75
2022-08-17T01:55:47.387Z,1.35
2022-08-17T01:58:14.108Z,1.27
2022-08-17T02:00:59.418Z,1.52
2022-08-17T02:03:29.028Z,1.98
2022-08-17T02:05:55.818Z,1.35
2022-08-17T02:08:37.079Z,1.83
2022-08-17T02:11:11.637Z,2.22
2022-08-17T02:13:39.262Z,1.50
2022-08-17T02:16:06.116Z,2.17
2022-08-17T02:18:33.014Z,1.95
2022-08-17T02:21:00.207Z,1.38
2022-08-17T02:23:30.417Z,1.65
2022-08-17T02:25:59.390Z,1.58
2022-08-17T02:28:26.623Z,1.70
2022-08-17T02:31:01.256Z,1.67
2022-08-17T02:33:41.864Z,1.75
2022-08-17T02:36:11.319Z,1.63
2022-08-17T02:38:38.899Z,0.60
2022-08-17T02:41:06.055Z,1.27
2022-08-17T02:43:32.819Z,1.40
2022-08-17T02:45:59.473Z,1.48
2022-08-17T02:48:31.651Z,1.92
2022-08-17T02:50:59.686Z,1.10
2022-08-17T02:53:26.798Z,1.48
2022-08-17T02:55:53.765Z,1.33
2022-08-17T02:58:35.458Z,1.40
2022-08-17T03:01:05.323Z,0.57
2022-08-17T03:03:32.333Z,1.17
2022-08-17T03:05:58.957Z,1.17
2022-08-17T03:08:25.836Z,1.95
2022-08-17T03:10:53.091Z,1.00
2022-08-17T03:13:20.142Z,1.08
2022-08-17T03:15:48.522Z,1.00
2022-08-17T03:18:25.335Z,1.05
2022-08-17T03:20:56.059Z,1.00
2022-08-17T03:23:25.469Z,0.95
2022-08-17T03:28:20.502Z,1.83
2022-08-17T03:30:47.167Z,1.20
2022-08-17T03:33:13.909Z,1.15
2022-08-17T03:35:40.876Z,1.70
2022-08-17T03:38:10.212Z,1.63
2022-08-17T03:40:56.878Z,1.20
2022-08-17T03:43:25.173Z,1.73
2022-08-17T03:46:28.043Z,0.98
2022-08-17T03:49:18.209Z,0.30
2022-08-17T03:52:04.758Z,0.50
2022-08-17T03:54:51.316Z,1.60
2022-08-17T03:57:19.283Z,1.95
2022-08-17T03:59:47.675Z,0.75
2022-08-17T04:02:22.324Z,1.80
2022-08-17T04:04:51.000Z,1.30
2022-08-17T04:07:20.885Z,1.50
2022-08-17T04:09:47.851Z,1.70
2022-08-17T04:12:17.231Z,1.23
2022-08-17T04:14:53.521Z,1.40
2022-08-17T04:17:24.246Z,1.40
2022-08-17T04:19:51.213Z,1.70
2022-08-17T04:22:30.069Z,1.73
2022-08-17T04:24:58.744Z,1.80
2022-08-17T04:27:25.430Z,1.90
2022-08-17T04:29:55.544Z,1.52
2022-08-17T04:33:04.252Z,1.40
2022-08-17T04:35:10.044Z,1.83
2022-08-17T04:37:36.741Z,1.60
2022-08-17T04:40:27.282Z,2.10
2022-08-17T04:43:14.354Z,1.70
2022-08-17T04:45:54.930Z,1.45
2022-08-17T04:48:27.875Z,1.77
2022-08-17T04:51:03.934Z,1.33
2022-08-17T04:53:30.569Z,1.40
2022-08-17T04:55:59.099Z,1.55
2022-08-17T04:58:26.239Z,1.85
2022-08-17T05:00:52.940Z,1.33
2022-08-17T05:03:19.699Z,1.92
2022-08-17T05:05:49.727Z,1.15
2022-08-17T05:08:19.030Z,1.45
2022-08-17T05:10:46.952Z,1.73
2022-08-17T05:13:18.660Z,1.20
2022-08-17T05:15:47.682Z,1.70
2022-08-17T05:18:16.555Z,1.75
2022-08-17T05:20:43.734Z,0.85
2022-08-17T05:23:14.798Z,1.30
2022-08-17T05:25:46.240Z,1.23
2022-08-17T05:28:16.111Z,1.15
2022-08-17T05:30:43.806Z,1.58
2022-08-17T05:33:15.010Z,1.58
2022-08-17T05:35:44.456Z,0.65
2022-08-17T05:38:11.493Z,1.60
2022-08-17T05:40:38.854Z,2.22
2022-08-17T05:45:55.520Z,0.40
2022-08-17T05:48:39.496Z,0.50
2022-08-17T05:53:53.969Z,0.57
2022-08-17T05:56:48.366Z,0.40
2022-08-17T06:02:26.285Z,2.10
2022-08-17T06:16:04.720Z,0.88
2022-08-17T06:21:35.910Z,1.13
2022-08-17T06:24:14.663Z,1.23
2022-08-17T06:26:45.431Z,2.20
2022-08-17T06:31:49.019Z,1.05
2022-08-17T06:34:15.692Z,0.75
2022-08-17T06:44:51.607Z,0.47
2022-08-17T06:47:31.754Z,2.88
2022-08-17T06:50:21.946Z,2.08
2022-08-17T06:53:28.326Z,1.70
2022-08-17T06:56:02.393Z,1.80
2022-08-17T06:58:31.481Z,1.85
2022-08-17T07:01:06.023Z,2.38
2022-08-17T07:03:39.652Z,2.72
2022-08-17T07:06:14.654Z,1.98
2022-08-17T07:08:53.713Z,2.33
2022-08-17T07:11:30.100Z,2.25
2022-08-17T07:14:37.692Z,2.60
2022-08-17T07:17:10.434Z,2.20
2022-08-17T07:19:45.575Z,2.22
2022-08-17T07:24:59.713Z,0.82
2022-08-17T07:30:26.233Z,1.00
2022-08-17T07:33:01.063Z,1.08
2022-08-17T07:38:25.748Z,0.90
2022-08-17T07:43:45.086Z,0.77
2022-08-17T07:48:52.302Z,1.77
2022-08-17T07:51:26.091Z,2.40
2022-08-17T07:54:12.910Z,2.15
2022-08-17T07:56:44.666Z,2.00
2022-08-17T08:04:59.244Z,0.75
2022-08-17T08:07:31.975Z,1.33
2022-08-17T08:12:42.438Z,1.83
2022-08-17T08:17:54.540Z,1.02
2022-08-17T08:20:50.987Z,1.02
2022-08-17T08:23:57.383Z,1.02
2022-08-17T08:37:36.654Z,2.30
2022-08-17T08:53:58.735Z,0.70
2022-08-17T09:02:18.188Z,0.63
2022-08-17T09:05:16.839Z,0.60
2022-08-17T09:08:23.420Z,0.88
2022-08-17T09:27:09.202Z,0.68
2022-08-17T09:29:41.280Z,0.40
2022-08-17T09:32:22.226Z,0.50
2022-08-17T09:34:54.853Z,0.95
2022-08-17T09:38:01.458Z,0.55
2022-08-17T09:40:48.682Z,0.30
2022-08-17T09:45:57.943Z,1.48
2022-08-17T09:48:32.105Z,1.95
2022-08-17T09:51:40.206Z,1.17
2022-08-17T10:21:17.569Z,0.60
2022-08-17T10:55:19.438Z,0.90
2022-08-17T10:57:50.191Z,0.90
2022-08-17T11:26:58.973Z,0.95
2022-08-17T11:29:33.793Z,1.30
2022-08-17T11:32:13.545Z,0.77
2022-08-17T11:34:43.469Z,1.20
2022-08-17T11:37:24.130Z,1.00
2022-08-17T11:45:57.206Z,0.98
2022-08-17T12:09:25.119Z,1.23
2022-08-17T12:12:13.728Z,1.23
2022-08-17T12:17:41.244Z,0.95
2022-08-17T12:20:21.468Z,0.63
2022-08-17T12:23:01.069Z,1.02
2022-08-17T12:28:24.755Z,2.47
2022-08-17T12:30:52.379Z,2.63
2022-08-17T12:33:25.020Z,2.00
2022-08-17T12:36:00.581Z,1.65
2022-08-17T12:38:32.328Z,0.90
2022-08-17T12:41:21.333Z,1.58
2022-08-17T12:43:58.685Z,1.85
2022-08-17T12:46:25.757Z,0.98
2022-08-17T12:48:58.859Z,2.28
2022-08-17T12:51:27.660Z,2.20
2022-08-17T12:53:55.562Z,2.22
2022-08-17T12:56:22.420Z,2.03
2022-08-17T12:58:54.309Z,2.38
2022-08-17T13:01:26.808Z,1.95
2022-08-17T13:04:00.122Z,1.77
2022-08-17T13:06:34.160Z,1.98
2022-08-17T13:09:12.873Z,2.08
2022-08-17T13:12:02.201Z,1.90
2022-08-17T13:14:29.412Z,1.65
2022-08-17T13:17:02.187Z,2.28
2022-08-17T13:19:40.889Z,1.92
2022-08-17T13:22:12.551Z,2.25
2022-08-17T13:24:53.411Z,1.83
2022-08-17T13:27:22.515Z,2.08
2022-08-17T13:29:53.766Z,2.03
2022-08-17T13:35:15.012Z,0.98
2022-08-17T13:38:05.048Z,0.93
2022-08-17T13:40:38.326Z,0.98
2022-08-17T13:43:05.411Z,1.13
2022-08-17T13:45:43.514Z,1.00
2022-08-17T13:53:51.221Z,0.68
2022-08-17T13:56:39.687Z,0.95
2022-08-17T13:59:11.259Z,0.52
2022-08-17T14:04:18.526Z,1.45
2022-08-17T14:09:36.810Z,1.88
2022-08-17T14:12:06.533Z,1.80
2022-08-17T14:14:33.357Z,0.90
2022-08-17T14:17:00.026Z,1.48
2022-08-17T14:19:26.739Z,1.60
2022-08-17T14:21:56.515Z,1.13
2022-08-17T14:24:29.759Z,1.48
2022-08-17T14:26:57.670Z,1.35
2022-08-17T14:29:27.995Z,1.63
2022-08-17T14:31:56.302Z,1.42
2022-08-17T14:34:24.610Z,1.00
2022-08-17T14:36:52.294Z,1.50
2022-08-17T14:39:20.308Z,1.23
2022-08-17T14:41:47.183Z,1.52
2022-08-17T14:44:15.714Z,1.30
2022-08-17T14:46:44.555Z,1.75
2022-08-17T14:49:13.160Z,1.30
2022-08-17T14:51:43.815Z,0.93
2022-08-17T14:54:11.907Z,1.63
2022-08-17T14:57:22.184Z,1.83
2022-08-17T14:59:45.498Z,1.67
2022-08-17T15:02:13.238Z,1.30
2022-08-17T15:04:44.960Z,2.13
2022-08-17T15:07:12.418Z,1.92
2022-08-17T15:09:39.196Z,1.60
2022-08-17T15:12:06.755Z,1.25
2022-08-17T15:14:35.480Z,1.25
2022-08-17T15:17:03.859Z,1.73
2022-08-17T15:19:30.625Z,1.45
2022-08-17T15:21:57.538Z,1.77
2022-08-17T15:24:24.147Z,0.95
2022-08-17T15:26:51.470Z,1.58
2022-08-17T15:29:18.079Z,1.48
2022-08-17T15:31:44.782Z,1.58
2022-08-17T15:34:11.999Z,2.15
2022-08-17T15:36:38.916Z,1.60
2022-08-17T15:39:15.649Z,1.73
2022-08-17T15:41:47.354Z,2.15
2022-08-17T15:44:32.350Z,1.75
2022-08-17T15:47:02.147Z,2.45
2022-08-17T15:49:28.925Z,2.15
2022-08-17T15:51:55.547Z,1.65
2022-08-17T15:54:23.542Z,2.58
2022-08-17T15:56:50.716Z,2.28
2022-08-17T15:59:17.397Z,1.90
2022-08-17T16:03:04.662Z,2.22
2022-08-17T16:04:31.906Z,1.95
2022-08-17T16:07:00.048Z,1.48
2022-08-17T16:09:27.584Z,2.97
2022-08-17T16:11:56.107Z,1.85
2022-08-17T16:14:32.407Z,1.92
2022-08-17T16:17:02.397Z,1.45
2022-08-17T16:19:29.023Z,1.85
2022-08-17T16:21:55.706Z,1.70
2022-08-17T16:24:22.301Z,2.35
2022-08-17T16:26:48.912Z,2.35
2022-08-17T16:29:15.548Z,0.88
2022-08-17T16:31:43.271Z,1.45
2022-08-17T16:34:17.739Z,2.65
2022-08-17T16:36:54.738Z,2.05
2022-08-17T16:39:22.779Z,1.70
2022-08-17T16:41:50.377Z,3.15
2022-08-17T16:44:20.277Z,1.95
2022-08-17T16:46:48.500Z,1.65
2022-08-17T16:49:35.244Z,2.03
2022-08-17T16:52:04.124Z,2.22
2022-08-17T16:54:30.853Z,2.33
2022-08-17T16:56:57.500Z,2.10
2022-08-17T16:59:38.846Z,1.95
2022-08-17T17:02:11.239Z,2.15
2022-08-17T17:04:45.924Z,1.90
2022-08-17T17:09:49.121Z,1.15
2022-08-17T17:12:19.184Z,0.90
2022-08-17T17:15:02.238Z,1.33
2022-08-17T17:17:33.893Z,1.33
2022-08-17T17:20:10.120Z,1.10
2022-08-17T17:33:48.279Z,1.08
2022-08-17T17:36:54.679Z,1.30
2022-08-17T17:44:40.992Z,1.48
2022-08-17T17:47:07.824Z,1.45
2022-08-17T17:49:38.288Z,1.23
2022-08-17T17:52:19.166Z,1.13
2022-08-17T17:55:16.076Z,0.90
2022-08-17T18:00:49.903Z,2.03
2022-08-17T18:03:56.268Z,2.28
2022-08-17T18:06:46.404Z,2.42
2022-08-17T18:12:22.099Z,1.92
2022-08-17T18:26:20.219Z,1.48
2022-08-17T18:28:50.748Z,1.55
2022-08-17T18:31:21.020Z,1.50
2022-08-17T18:33:50.707Z,1.73
2022-08-17T18:39:25.662Z,1.20
2022-08-17T18:41:56.747Z,1.50
2022-08-17T18:44:43.998Z,1.60
2022-08-17T18:47:20.275Z,1.73
2022-08-17T18:49:57.467Z,1.27
2022-08-17T18:55:23.912Z,2.17
2022-08-17T18:57:55.568Z,1.42
2022-08-17T19:03:03.495Z,1.35
2022-08-17T19:05:36.750Z,1.13
2022-08-17T19:11:23.661Z,1.17
2022-08-17T19:14:02.264Z,0.70
2022-08-17T19:19:13.629Z,1.95
2022-08-17T19:21:53.198Z,1.58
2022-08-17T19:24:23.479Z,2.00
2022-08-17T19:29:37.044Z,2.05
2022-08-17T19:32:06.489Z,1.92
2022-08-17T19:34:35.774Z,1.08
2022-08-17T19:37:09.965Z,1.65
2022-08-17T19:40:03.467Z,1.40
2022-08-17T19:48:21.808Z,1.15
2022-08-17T19:50:56.392Z,0.80
2022-08-17T19:56:21.618Z,1.00
2022-08-17T20:06:53.281Z,2.53
2022-08-17T20:09:46.078Z,1.85
2022-08-17T20:14:57.284Z,1.20
2022-08-17T20:17:41.028Z,1.02
2022-08-17T20:20:34.962Z,1.08
2022-08-17T20:23:11.726Z,0.80
2022-08-17T20:25:46.751Z,0.80
2022-08-17T20:28:35.042Z,0.98
2022-08-17T20:31:02.771Z,1.88
2022-08-17T20:41:23.028Z,1.67
2022-08-17T20:44:03.021Z,1.75
2022-08-17T21:05:26.491Z,1.10
2022-08-17T21:08:01.738Z,1.15
2022-08-17T21:10:35.864Z,0.98
2022-08-17T21:16:20.789Z,1.45
2022-08-17T21:21:41.377Z,3.20
2022-08-17T21:24:48.038Z,3.50
2022-08-17T21:35:28.250Z,1.95
2022-08-17T21:38:02.434Z,1.63
2022-08-17T21:40:32.022Z,1.83
2022-08-17T21:43:16.963Z,1.23
2022-08-17T21:45:53.880Z,2.22
2022-08-17T21:48:24.620Z,2.05
2022-08-17T21:56:25.955Z,1.83
2022-08-17T21:58:59.322Z,0.82
2022-08-17T22:01:31.336Z,1.70
2022-08-17T22:04:03.899Z,1.15
2022-08-17T22:06:56.490Z,0.82
2022-08-17T22:19:56.475Z,1.63
2022-08-17T22:25:25.407Z,1.17
2022-08-17T22:27:57.520Z,1.10
2022-08-17T22:33:41.995Z,3.17
2022-08-17T22:38:46.453Z,1.65
2022-08-17T22:49:58.075Z,1.48
2022-08-17T22:52:59.353Z,1.45
2022-08-17T22:55:47.411Z,1.38
2022-08-17T22:58:37.469Z,1.30
2022-08-17T23:01:26.359Z,1.33
2022-08-17T23:04:01.406Z,1.23
2022-08-17T23:06:28.975Z,2.17
2022-08-17T23:08:56.630Z,1.45
2022-08-17T23:11:36.731Z,1.92
2022-08-17T23:14:15.844Z,1.20
2022-08-17T23:16:42.853Z,1.38
2022-08-17T23:19:15.758Z,1.85
2022-08-17T23:21:45.124Z,1.20
2022-08-17T23:24:17.153Z,1.70
2022-08-17T23:26:43.768Z,1.80
2022-08-17T23:29:10.481Z,1.27
2022-08-17T23:31:38.979Z,1.05
2022-08-17T23:34:10.407Z,1.25
2022-08-17T23:36:37.551Z,1.50
2022-08-17T23:39:05.225Z,1.63
2022-08-17T23:41:36.349Z,1.05
2022-08-17T23:44:05.581Z,1.73
2022-08-17T23:46:32.870Z,0.90
2022-08-17T23:48:59.574Z,1.08
2022-08-17T23:51:31.008Z,1.33
2022-08-17T23:54:07.663Z,1.20
2022-08-17T23:56:38.764Z,1.02
2022-08-17T23:59:05.615Z,1.17
